Aviation Digital Data Service (ADDS)

Output produced by METARs form (0006 UTC 04 March 2015)
found at http://www.aviationweather.gov/adds/metars/
 
KJFK 032328Z 0400/0506 17010KT 2SM -FZRAPLSN BKN004 OVC010 
     FM040100 18013KT 2SM RA OVC004 
     FM040600 24012KT 3SM -SHRA BR OVC004 WS020/25050KT 
     FM041100 26009KT 3SM -RA BR OVC008 
     FM041700 26008KT 5SM -RA BR BKN008 BKN050 
     FM050000 27005KT 4SM -RA BR OVC008